Qumarleb, China
Current Conditions -  °F | °C
As of 2:00 AM on Friday 24 Oct 2014 (Local Time) from ZLLL Reporting Station
Clear Clear  
Wind Chill: 34°   Ceiling: Unl
Heat Index: 39°   Visibility: 6mi
Dew Point: 28°   Wind: 7mph
Humidity: 65%   Direction: 330°NNW
Pressure: 30.15"   Gusts: NA
Location:  34.13°N, 95.78°E
Report Text: ZLLL 231800Z 33003MPS CAVOK 04/M02 Q1021 NOSIG
Loading
Personal Weather Stations






























Interactive Weather Map
Tropical Storm Tracking
New forecast layout! Learn more

10-Day Weather Forecast

Advertisements
Track Severe Weather on mobile